sensor_id;sensor_type;location;lat;lon;timestamp;P1;durP1;ratioP1;P2;durP2;ratioP2
7205;SDS011;3644;53.480;10.004;2022-08-21T00:01:02;10.67;;;3.43;;
7205;SDS011;3644;53.480;10.004;2022-08-21T00:03:30;8.07;;;3.90;;
7205;SDS011;3644;53.480;10.004;2022-08-21T00:05:56;12.20;;;3.80;;
7205;SDS011;3644;53.480;10.004;2022-08-21T00:08:22;6.60;;;3.90;;
7205;SDS011;3644;53.480;10.004;2022-08-21T00:10:47;7.63;;;3.60;;
7205;SDS011;3644;53.480;10.004;2022-08-21T00:13:14;9.70;;;5.33;;
7205;SDS011;3644;53.480;10.004;2022-08-21T00:15:40;5.43;;;4.10;;
7205;SDS011;3644;53.480;10.004;2022-08-21T00:18:07;7.23;;;3.90;;
7205;SDS011;3644;53.480;10.004;2022-08-21T00:20:35;4.60;;;3.60;;
7205;SDS011;3644;53.480;10.004;2022-08-21T00:23:01;9.80;;;4.30;;
7205;SDS011;3644;53.480;10.004;2022-08-21T00:25:27;7.27;;;4.20;;
7205;SDS011;3644;53.480;10.004;2022-08-21T00:27:53;5.03;;;4.20;;
7205;SDS011;3644;53.480;10.004;2022-08-21T00:30:20;10.50;;;4.10;;
7205;SDS011;3644;53.480;10.004;2022-08-21T00:32:48;8.10;;;4.37;;
7205;SDS011;3644;53.480;10.004;2022-08-21T00:35:15;12.63;;;4.67;;
7205;SDS011;3644;53.480;10.004;2022-08-21T00:37:42;10.87;;;4.10;;
7205;SDS011;3644;53.480;10.004;2022-08-21T00:40:11;6.20;;;3.93;;
7205;SDS011;3644;53.480;10.004;2022-08-21T00:42:38;7.00;;;5.07;;
7205;SDS011;3644;53.480;10.004;2022-08-21T00:45:06;6.10;;;3.40;;
7205;SDS011;3644;53.480;10.004;2022-08-21T00:47:32;7.87;;;3.87;;
7205;SDS011;3644;53.480;10.004;2022-08-21T00:49:58;4.27;;;3.83;;
7205;SDS011;3644;53.480;10.004;2022-08-21T00:52:24;8.73;;;4.20;;
7205;SDS011;3644;53.480;10.004;2022-08-21T00:54:53;6.43;;;4.13;;
7205;SDS011;3644;53.480;10.004;2022-08-21T00:57:22;6.30;;;3.87;;
7205;SDS011;3644;53.480;10.004;2022-08-21T00:59:53;9.17;;;4.13;;
7205;SDS011;3644;53.480;10.004;2022-08-21T01:02:23;12.43;;;3.37;;
7205;SDS011;3644;53.480;10.004;2022-08-21T01:04:49;6.73;;;3.40;;
7205;SDS011;3644;53.480;10.004;2022-08-21T01:07:15;5.10;;;3.00;;
7205;SDS011;3644;53.480;10.004;2022-08-21T01:09:41;5.70;;;3.63;;
7205;SDS011;3644;53.480;10.004;2022-08-21T01:12:07;6.03;;;4.17;;
7205;SDS011;3644;53.480;10.004;2022-08-21T01:14:33;8.43;;;3.67;;
7205;SDS011;3644;53.480;10.004;2022-08-21T01:16:59;5.63;;;3.60;;
7205;SDS011;3644;53.480;10.004;2022-08-21T01:19:28;4.50;;;3.00;;
7205;SDS011;3644;53.480;10.004;2022-08-21T01:21:54;5.93;;;3.53;;
7205;SDS011;3644;53.480;10.004;2022-08-21T01:24:20;4.93;;;3.20;;
7205;SDS011;3644;53.480;10.004;2022-08-21T01:26:47;6.93;;;2.73;;
7205;SDS011;3644;53.480;10.004;2022-08-21T01:29:16;5.97;;;3.30;;
7205;SDS011;3644;53.480;10.004;2022-08-21T01:31:45;6.77;;;3.67;;
7205;SDS011;3644;53.480;10.004;2022-08-21T01:34:11;3.40;;;3.10;;
7205;SDS011;3644;53.480;10.004;2022-08-21T01:36:37;7.47;;;3.07;;
7205;SDS011;3644;53.480;10.004;2022-08-21T01:39:03;5.07;;;2.97;;
7205;SDS011;3644;53.480;10.004;2022-08-21T01:41:30;5.80;;;3.73;;
7205;SDS011;3644;53.480;10.004;2022-08-21T01:43:55;5.27;;;3.83;;
7205;SDS011;3644;53.480;10.004;2022-08-21T01:46:21;7.20;;;3.60;;
7205;SDS011;3644;53.480;10.004;2022-08-21T01:48:46;7.50;;;3.37;;
7205;SDS011;3644;53.480;10.004;2022-08-21T01:51:12;4.27;;;3.20;;
7205;SDS011;3644;53.480;10.004;2022-08-21T01:53:38;5.07;;;2.67;;
7205;SDS011;3644;53.480;10.004;2022-08-21T01:56:05;5.20;;;3.50;;
7205;SDS011;3644;53.480;10.004;2022-08-21T01:58:32;9.93;;;3.87;;
7205;SDS011;3644;53.480;10.004;2022-08-21T02:00:59;6.87;;;3.70;;
7205;SDS011;3644;53.480;10.004;2022-08-21T02:03:26;5.70;;;3.30;;
7205;SDS011;3644;53.480;10.004;2022-08-21T02:05:52;18.57;;;3.00;;
7205;SDS011;3644;53.480;10.004;2022-08-21T02:08:18;3.30;;;2.80;;
7205;SDS011;3644;53.480;10.004;2022-08-21T02:10:43;6.20;;;3.40;;
7205;SDS011;3644;53.480;10.004;2022-08-21T02:13:09;6.17;;;3.10;;
7205;SDS011;3644;53.480;10.004;2022-08-21T02:15:34;5.87;;;2.97;;
7205;SDS011;3644;53.480;10.004;2022-08-21T02:18:00;3.70;;;2.93;;
7205;SDS011;3644;53.480;10.004;2022-08-21T02:20:29;3.13;;;2.83;;
7205;SDS011;3644;53.480;10.004;2022-08-21T02:23:00;7.67;;;3.23;;
7205;SDS011;3644;53.480;10.004;2022-08-21T02:25:26;7.47;;;3.30;;
7205;SDS011;3644;53.480;10.004;2022-08-21T02:27:53;4.20;;;3.07;;
7205;SDS011;3644;53.480;10.004;2022-08-21T02:30:23;5.60;;;3.00;;
7205;SDS011;3644;53.480;10.004;2022-08-21T02:32:54;5.10;;;3.40;;
7205;SDS011;3644;53.480;10.004;2022-08-21T02:35:20;8.60;;;3.63;;
7205;SDS011;3644;53.480;10.004;2022-08-21T02:37:47;8.57;;;3.10;;
7205;SDS011;3644;53.480;10.004;2022-08-21T02:40:34;4.53;;;3.40;;
7205;SDS011;3644;53.480;10.004;2022-08-21T02:43:03;4.83;;;3.27;;
7205;SDS011;3644;53.480;10.004;2022-08-21T02:45:30;5.90;;;3.43;;
7205;SDS011;3644;53.480;10.004;2022-08-21T02:47:57;12.63;;;3.80;;
7205;SDS011;3644;53.480;10.004;2022-08-21T02:50:27;8.67;;;2.73;;
7205;SDS011;3644;53.480;10.004;2022-08-21T02:52:55;4.87;;;3.13;;
7205;SDS011;3644;53.480;10.004;2022-08-21T02:55:22;11.40;;;3.07;;
7205;SDS011;3644;53.480;10.004;2022-08-21T02:57:51;9.73;;;4.17;;
7205;SDS011;3644;53.480;10.004;2022-08-21T03:00:18;4.00;;;2.87;;
7205;SDS011;3644;53.480;10.004;2022-08-21T03:02:45;8.20;;;3.23;;
7205;SDS011;3644;53.480;10.004;2022-08-21T03:05:11;2.80;;;2.50;;
7205;SDS011;3644;53.480;10.004;2022-08-21T03:07:39;10.73;;;3.53;;
7205;SDS011;3644;53.480;10.004;2022-08-21T03:10:05;3.90;;;3.60;;
7205;SDS011;3644;53.480;10.004;2022-08-21T03:12:31;5.30;;;2.80;;
7205;SDS011;3644;53.480;10.004;2022-08-21T03:14:57;5.10;;;3.27;;
7205;SDS011;3644;53.480;10.004;2022-08-21T03:17:23;4.50;;;3.00;;
7205;SDS011;3644;53.480;10.004;2022-08-21T03:19:49;4.67;;;3.20;;
7205;SDS011;3644;53.480;10.004;2022-08-21T03:22:15;5.17;;;2.90;;
7205;SDS011;3644;53.480;10.004;2022-08-21T03:24:41;4.53;;;3.43;;
7205;SDS011;3644;53.480;10.004;2022-08-21T03:27:06;5.40;;;2.77;;
7205;SDS011;3644;53.480;10.004;2022-08-21T03:29:32;4.10;;;2.67;;
7205;SDS011;3644;53.480;10.004;2022-08-21T03:31:57;8.83;;;3.20;;
7205;SDS011;3644;53.480;10.004;2022-08-21T03:34:22;5.00;;;2.70;;
7205;SDS011;3644;53.480;10.004;2022-08-21T03:36:48;3.77;;;3.07;;
7205;SDS011;3644;53.480;10.004;2022-08-21T03:39:14;5.40;;;3.20;;
7205;SDS011;3644;53.480;10.004;2022-08-21T03:41:41;4.97;;;3.50;;
7205;SDS011;3644;53.480;10.004;2022-08-21T03:44:06;12.03;;;3.23;;
7205;SDS011;3644;53.480;10.004;2022-08-21T03:46:32;5.27;;;2.93;;
7205;SDS011;3644;53.480;10.004;2022-08-21T03:48:59;6.03;;;3.13;;
7205;SDS011;3644;53.480;10.004;2022-08-21T03:51:24;4.00;;;3.20;;
7205;SDS011;3644;53.480;10.004;2022-08-21T03:53:50;7.83;;;3.47;;
7205;SDS011;3644;53.480;10.004;2022-08-21T03:56:16;3.20;;;2.57;;
7205;SDS011;3644;53.480;10.004;2022-08-21T03:58:41;5.57;;;3.17;;
7205;SDS011;3644;53.480;10.004;2022-08-21T04:01:07;7.10;;;3.23;;
7205;SDS011;3644;53.480;10.004;2022-08-21T04:03:34;4.93;;;3.13;;
7205;SDS011;3644;53.480;10.004;2022-08-21T04:06:01;5.50;;;3.07;;
7205;SDS011;3644;53.480;10.004;2022-08-21T04:08:27;8.53;;;3.50;;
7205;SDS011;3644;53.480;10.004;2022-08-21T04:10:54;5.37;;;2.80;;
7205;SDS011;3644;53.480;10.004;2022-08-21T04:13:21;3.97;;;3.57;;
7205;SDS011;3644;53.480;10.004;2022-08-21T04:15:47;9.43;;;3.50;;
7205;SDS011;3644;53.480;10.004;2022-08-21T04:18:13;7.63;;;3.07;;
7205;SDS011;3644;53.480;10.004;2022-08-21T04:20:39;6.83;;;3.27;;
7205;SDS011;3644;53.480;10.004;2022-08-21T04:23:07;8.10;;;3.20;;
7205;SDS011;3644;53.480;10.004;2022-08-21T04:25:32;4.50;;;3.23;;
7205;SDS011;3644;53.480;10.004;2022-08-21T04:27:58;5.07;;;3.03;;
7205;SDS011;3644;53.480;10.004;2022-08-21T04:30:24;4.03;;;3.63;;
7205;SDS011;3644;53.480;10.004;2022-08-21T04:32:50;5.00;;;3.07;;
7205;SDS011;3644;53.480;10.004;2022-08-21T04:35:17;3.83;;;3.53;;
7205;SDS011;3644;53.480;10.004;2022-08-21T04:37:45;7.73;;;3.40;;
7205;SDS011;3644;53.480;10.004;2022-08-21T04:40:11;6.23;;;3.57;;
7205;SDS011;3644;53.480;10.004;2022-08-21T04:42:42;5.70;;;3.90;;
7205;SDS011;3644;53.480;10.004;2022-08-21T04:45:33;6.83;;;3.87;;
7205;SDS011;3644;53.480;10.004;2022-08-21T04:48:05;5.53;;;4.40;;
7205;SDS011;3644;53.480;10.004;2022-08-21T04:50:43;9.37;;;3.53;;
7205;SDS011;3644;53.480;10.004;2022-08-21T04:53:33;6.80;;;4.40;;
7205;SDS011;3644;53.480;10.004;2022-08-21T04:56:09;5.47;;;3.43;;
7205;SDS011;3644;53.480;10.004;2022-08-21T04:58:43;5.07;;;3.80;;
7205;SDS011;3644;53.480;10.004;2022-08-21T05:01:15;6.03;;;3.80;;
7205;SDS011;3644;53.480;10.004;2022-08-21T05:03:43;5.77;;;3.90;;
7205;SDS011;3644;53.480;10.004;2022-08-21T05:06:10;9.63;;;4.40;;
7205;SDS011;3644;53.480;10.004;2022-08-21T05:08:37;7.27;;;3.13;;
7205;SDS011;3644;53.480;10.004;2022-08-21T05:11:04;5.87;;;3.37;;
7205;SDS011;3644;53.480;10.004;2022-08-21T05:13:31;5.40;;;3.27;;
7205;SDS011;3644;53.480;10.004;2022-08-21T05:15:56;7.00;;;3.37;;
7205;SDS011;3644;53.480;10.004;2022-08-21T05:18:22;27.23;;;3.80;;
7205;SDS011;3644;53.480;10.004;2022-08-21T05:20:48;11.87;;;3.60;;
7205;SDS011;3644;53.480;10.004;2022-08-21T05:23:14;6.43;;;3.63;;
7205;SDS011;3644;53.480;10.004;2022-08-21T05:25:40;7.57;;;3.80;;
7205;SDS011;3644;53.480;10.004;2022-08-21T05:28:06;5.80;;;2.90;;
7205;SDS011;3644;53.480;10.004;2022-08-21T05:30:32;5.20;;;3.30;;
7205;SDS011;3644;53.480;10.004;2022-08-21T05:32:59;10.60;;;3.20;;
7205;SDS011;3644;53.480;10.004;2022-08-21T05:35:26;3.13;;;2.83;;
7205;SDS011;3644;53.480;10.004;2022-08-21T05:37:53;5.13;;;3.10;;
7205;SDS011;3644;53.480;10.004;2022-08-21T05:40:19;13.10;;;2.97;;
7205;SDS011;3644;53.480;10.004;2022-08-21T05:42:44;3.10;;;2.70;;
7205;SDS011;3644;53.480;10.004;2022-08-21T05:45:10;5.87;;;3.37;;
7205;SDS011;3644;53.480;10.004;2022-08-21T05:47:35;4.20;;;3.30;;
7205;SDS011;3644;53.480;10.004;2022-08-21T05:50:01;8.00;;;3.67;;
7205;SDS011;3644;53.480;10.004;2022-08-21T05:52:27;6.87;;;3.13;;
7205;SDS011;3644;53.480;10.004;2022-08-21T05:54:52;9.80;;;3.30;;
7205;SDS011;3644;53.480;10.004;2022-08-21T05:57:19;4.83;;;3.43;;
7205;SDS011;3644;53.480;10.004;2022-08-21T05:59:45;4.83;;;3.53;;
7205;SDS011;3644;53.480;10.004;2022-08-21T06:02:10;8.60;;;3.27;;
7205;SDS011;3644;53.480;10.004;2022-08-21T06:04:37;5.90;;;3.80;;
7205;SDS011;3644;53.480;10.004;2022-08-21T06:07:04;6.30;;;3.70;;
7205;SDS011;3644;53.480;10.004;2022-08-21T06:09:29;8.07;;;3.63;;
7205;SDS011;3644;53.480;10.004;2022-08-21T06:11:55;6.47;;;3.57;;
7205;SDS011;3644;53.480;10.004;2022-08-21T06:14:21;8.20;;;3.37;;
7205;SDS011;3644;53.480;10.004;2022-08-21T06:16:46;8.07;;;3.30;;
7205;SDS011;3644;53.480;10.004;2022-08-21T06:19:12;6.23;;;3.50;;
7205;SDS011;3644;53.480;10.004;2022-08-21T06:21:37;7.70;;;2.97;;
7205;SDS011;3644;53.480;10.004;2022-08-21T06:24:03;7.53;;;2.73;;
7205;SDS011;3644;53.480;10.004;2022-08-21T06:26:30;8.27;;;3.20;;
7205;SDS011;3644;53.480;10.004;2022-08-21T06:28:55;8.37;;;3.30;;
7205;SDS011;3644;53.480;10.004;2022-08-21T06:31:22;5.00;;;2.93;;
7205;SDS011;3644;53.480;10.004;2022-08-21T06:33:49;6.10;;;3.53;;
7205;SDS011;3644;53.480;10.004;2022-08-21T06:36:15;7.43;;;3.13;;
7205;SDS011;3644;53.480;10.004;2022-08-21T06:38:42;4.60;;;2.70;;
7205;SDS011;3644;53.480;10.004;2022-08-21T06:41:07;5.80;;;2.90;;
7205;SDS011;3644;53.480;10.004;2022-08-21T06:43:33;10.03;;;3.40;;
7205;SDS011;3644;53.480;10.004;2022-08-21T06:45:58;5.43;;;2.70;;
7205;SDS011;3644;53.480;10.004;2022-08-21T06:48:24;7.13;;;3.00;;
7205;SDS011;3644;53.480;10.004;2022-08-21T06:50:50;4.63;;;2.27;;
7205;SDS011;3644;53.480;10.004;2022-08-21T06:53:17;6.60;;;3.40;;
7205;SDS011;3644;53.480;10.004;2022-08-21T06:55:44;5.20;;;2.40;;
7205;SDS011;3644;53.480;10.004;2022-08-21T06:58:10;10.87;;;2.97;;
7205;SDS011;3644;53.480;10.004;2022-08-21T07:00:38;6.53;;;2.63;;
7205;SDS011;3644;53.480;10.004;2022-08-21T07:03:05;4.37;;;2.93;;
7205;SDS011;3644;53.480;10.004;2022-08-21T07:05:31;9.03;;;2.63;;
7205;SDS011;3644;53.480;10.004;2022-08-21T07:07:57;7.80;;;2.37;;
7205;SDS011;3644;53.480;10.004;2022-08-21T07:10:23;7.00;;;2.70;;
7205;SDS011;3644;53.480;10.004;2022-08-21T07:12:50;5.33;;;2.80;;
7205;SDS011;3644;53.480;10.004;2022-08-21T07:15:17;3.87;;;2.20;;
7205;SDS011;3644;53.480;10.004;2022-08-21T07:17:43;6.20;;;2.67;;
7205;SDS011;3644;53.480;10.004;2022-08-21T07:20:08;9.07;;;2.80;;
7205;SDS011;3644;53.480;10.004;2022-08-21T07:22:35;6.50;;;2.67;;
7205;SDS011;3644;53.480;10.004;2022-08-21T07:25:03;6.17;;;2.60;;
7205;SDS011;3644;53.480;10.004;2022-08-21T07:27:29;9.43;;;2.60;;
7205;SDS011;3644;53.480;10.004;2022-08-21T07:29:56;5.13;;;2.63;;
7205;SDS011;3644;53.480;10.004;2022-08-21T07:32:21;7.07;;;2.70;;
7205;SDS011;3644;53.480;10.004;2022-08-21T07:34:47;9.90;;;2.50;;
7205;SDS011;3644;53.480;10.004;2022-08-21T07:37:12;6.97;;;2.47;;
7205;SDS011;3644;53.480;10.004;2022-08-21T07:39:38;5.70;;;2.10;;
7205;SDS011;3644;53.480;10.004;2022-08-21T07:42:04;4.83;;;2.40;;
7205;SDS011;3644;53.480;10.004;2022-08-21T07:44:29;10.50;;;2.23;;
7205;SDS011;3644;53.480;10.004;2022-08-21T07:46:55;7.47;;;2.50;;
7205;SDS011;3644;53.480;10.004;2022-08-21T07:49:20;4.37;;;2.43;;
7205;SDS011;3644;53.480;10.004;2022-08-21T07:51:46;6.93;;;2.60;;
7205;SDS011;3644;53.480;10.004;2022-08-21T07:54:11;4.53;;;2.10;;
7205;SDS011;3644;53.480;10.004;2022-08-21T07:56:37;5.57;;;2.20;;
7205;SDS011;3644;53.480;10.004;2022-08-21T07:59:02;5.07;;;2.17;;
7205;SDS011;3644;53.480;10.004;2022-08-21T08:01:28;7.87;;;2.20;;
7205;SDS011;3644;53.480;10.004;2022-08-21T08:03:54;4.77;;;2.00;;
7205;SDS011;3644;53.480;10.004;2022-08-21T08:06:21;3.23;;;1.80;;
7205;SDS011;3644;53.480;10.004;2022-08-21T08:08:46;5.40;;;2.17;;
7205;SDS011;3644;53.480;10.004;2022-08-21T08:11:12;4.33;;;1.97;;
7205;SDS011;3644;53.480;10.004;2022-08-21T08:13:42;3.03;;;1.80;;
7205;SDS011;3644;53.480;10.004;2022-08-21T08:16:13;5.13;;;1.93;;
7205;SDS011;3644;53.480;10.004;2022-08-21T08:18:39;9.30;;;1.60;;
7205;SDS011;3644;53.480;10.004;2022-08-21T08:21:06;2.13;;;1.60;;
7205;SDS011;3644;53.480;10.004;2022-08-21T08:23:32;3.57;;;1.73;;
7205;SDS011;3644;53.480;10.004;2022-08-21T08:25:58;2.13;;;1.70;;
7205;SDS011;3644;53.480;10.004;2022-08-21T08:28:24;5.13;;;2.20;;
7205;SDS011;3644;53.480;10.004;2022-08-21T08:30:50;3.13;;;1.67;;
7205;SDS011;3644;53.480;10.004;2022-08-21T08:33:16;3.60;;;1.77;;
7205;SDS011;3644;53.480;10.004;2022-08-21T08:35:46;5.73;;;2.50;;
7205;SDS011;3644;53.480;10.004;2022-08-21T08:38:13;6.47;;;2.20;;
7205;SDS011;3644;53.480;10.004;2022-08-21T08:43:25;12.77;;;2.63;;
7205;SDS011;3644;53.480;10.004;2022-08-21T08:45:52;7.83;;;2.40;;
7205;SDS011;3644;53.480;10.004;2022-08-21T08:48:31;4.73;;;2.60;;
7205;SDS011;3644;53.480;10.004;2022-08-21T08:51:19;7.90;;;2.57;;
7205;SDS011;3644;53.480;10.004;2022-08-21T08:54:02;5.90;;;2.20;;
7205;SDS011;3644;53.480;10.004;2022-08-21T08:56:33;9.80;;;2.53;;
7205;SDS011;3644;53.480;10.004;2022-08-21T08:59:02;5.60;;;1.60;;
7205;SDS011;3644;53.480;10.004;2022-08-21T09:01:39;5.90;;;2.50;;
7205;SDS011;3644;53.480;10.004;2022-08-21T09:04:05;4.63;;;1.80;;
7205;SDS011;3644;53.480;10.004;2022-08-21T09:09:17;3.53;;;1.80;;
7205;SDS011;3644;53.480;10.004;2022-08-21T09:11:48;14.73;;;2.40;;
7205;SDS011;3644;53.480;10.004;2022-08-21T09:14:33;8.27;;;2.20;;
7205;SDS011;3644;53.480;10.004;2022-08-21T09:17:22;5.13;;;1.90;;
7205;SDS011;3644;53.480;10.004;2022-08-21T09:20:14;8.80;;;2.10;;
7205;SDS011;3644;53.480;10.004;2022-08-21T09:26:23;9.23;;;2.10;;
7205;SDS011;3644;53.480;10.004;2022-08-21T09:28:33;6.10;;;2.47;;
7205;SDS011;3644;53.480;10.004;2022-08-21T09:31:00;7.47;;;2.30;;
7205;SDS011;3644;53.480;10.004;2022-08-21T09:33:28;7.93;;;2.00;;
7205;SDS011;3644;53.480;10.004;2022-08-21T09:35:54;6.17;;;2.37;;
7205;SDS011;3644;53.480;10.004;2022-08-21T09:38:25;15.93;;;2.67;;
7205;SDS011;3644;53.480;10.004;2022-08-21T09:40:59;6.93;;;2.70;;
7205;SDS011;3644;53.480;10.004;2022-08-21T09:43:27;12.40;;;2.97;;
7205;SDS011;3644;53.480;10.004;2022-08-21T09:48:50;6.27;;;2.53;;
7205;SDS011;3644;53.480;10.004;2022-08-21T09:51:18;10.20;;;2.40;;
7205;SDS011;3644;53.480;10.004;2022-08-21T09:53:55;20.33;;;3.83;;
7205;SDS011;3644;53.480;10.004;2022-08-21T09:57:14;12.60;;;2.83;;
7205;SDS011;3644;53.480;10.004;2022-08-21T09:59:38;8.57;;;2.40;;
7205;SDS011;3644;53.480;10.004;2022-08-21T10:02:24;6.60;;;2.20;;
7205;SDS011;3644;53.480;10.004;2022-08-21T10:05:03;7.57;;;1.90;;
7205;SDS011;3644;53.480;10.004;2022-08-21T10:07:36;6.10;;;1.97;;
7205;SDS011;3644;53.480;10.004;2022-08-21T10:15:36;9.63;;;2.87;;
7205;SDS011;3644;53.480;10.004;2022-08-21T10:18:31;8.27;;;2.30;;
7205;SDS011;3644;53.480;10.004;2022-08-21T10:21:14;7.37;;;2.37;;
7205;SDS011;3644;53.480;10.004;2022-08-21T10:23:54;10.87;;;3.27;;
7205;SDS011;3644;53.480;10.004;2022-08-21T10:26:56;8.53;;;2.50;;
7205;SDS011;3644;53.480;10.004;2022-08-21T10:29:45;8.93;;;2.00;;
7205;SDS011;3644;53.480;10.004;2022-08-21T10:35:04;7.20;;;1.70;;
7205;SDS011;3644;53.480;10.004;2022-08-21T10:38:24;6.03;;;2.23;;
7205;SDS011;3644;53.480;10.004;2022-08-21T10:40:36;5.03;;;2.00;;
7205;SDS011;3644;53.480;10.004;2022-08-21T10:43:26;5.33;;;2.13;;
7205;SDS011;3644;53.480;10.004;2022-08-21T10:46:08;5.00;;;1.53;;
7205;SDS011;3644;53.480;10.004;2022-08-21T10:48:51;4.13;;;2.03;;
7205;SDS011;3644;53.480;10.004;2022-08-21T10:51:40;6.47;;;2.10;;
7205;SDS011;3644;53.480;10.004;2022-08-21T10:56:48;6.33;;;2.10;;
7205;SDS011;3644;53.480;10.004;2022-08-21T10:59:23;4.10;;;2.07;;
7205;SDS011;3644;53.480;10.004;2022-08-21T11:04:57;7.67;;;2.33;;
7205;SDS011;3644;53.480;10.004;2022-08-21T11:07:32;5.07;;;1.87;;
7205;SDS011;3644;53.480;10.004;2022-08-21T11:13:11;4.90;;;1.80;;
7205;SDS011;3644;53.480;10.004;2022-08-21T11:21:30;9.57;;;1.87;;
7205;SDS011;3644;53.480;10.004;2022-08-21T11:26:38;4.83;;;1.87;;
7205;SDS011;3644;53.480;10.004;2022-08-21T11:29:16;2.30;;;1.47;;
7205;SDS011;3644;53.480;10.004;2022-08-21T11:48:13;3.90;;;2.00;;
7205;SDS011;3644;53.480;10.004;2022-08-21T11:50:54;3.67;;;2.20;;
7205;SDS011;3644;53.480;10.004;2022-08-21T11:53:27;5.20;;;1.73;;
7205;SDS011;3644;53.480;10.004;2022-08-21T11:56:00;4.90;;;1.83;;
7205;SDS011;3644;53.480;10.004;2022-08-21T11:58:48;4.57;;;2.03;;
7205;SDS011;3644;53.480;10.004;2022-08-21T12:01:31;4.47;;;1.97;;
7205;SDS011;3644;53.480;10.004;2022-08-21T12:04:02;5.23;;;2.20;;
7205;SDS011;3644;53.480;10.004;2022-08-21T12:06:33;4.60;;;2.17;;
7205;SDS011;3644;53.480;10.004;2022-08-21T12:09:06;2.50;;;1.57;;
7205;SDS011;3644;53.480;10.004;2022-08-21T12:14:48;4.53;;;1.83;;
7205;SDS011;3644;53.480;10.004;2022-08-21T12:17:19;5.30;;;1.77;;
7205;SDS011;3644;53.480;10.004;2022-08-21T12:19:56;6.83;;;2.07;;
7205;SDS011;3644;53.480;10.004;2022-08-21T12:22:34;12.90;;;2.20;;
7205;SDS011;3644;53.480;10.004;2022-08-21T12:25:09;3.53;;;1.80;;
7205;SDS011;3644;53.480;10.004;2022-08-21T12:27:47;5.30;;;2.20;;
7205;SDS011;3644;53.480;10.004;2022-08-21T12:30:32;9.10;;;2.23;;
7205;SDS011;3644;53.480;10.004;2022-08-21T12:33:00;2.67;;;1.40;;
7205;SDS011;3644;53.480;10.004;2022-08-21T12:35:32;15.20;;;2.07;;
7205;SDS011;3644;53.480;10.004;2022-08-21T12:40:53;12.33;;;1.63;;
7205;SDS011;3644;53.480;10.004;2022-08-21T12:45:56;3.73;;;1.30;;
7205;SDS011;3644;53.480;10.004;2022-08-21T12:51:12;4.07;;;2.03;;
7205;SDS011;3644;53.480;10.004;2022-08-21T12:53:53;6.33;;;1.87;;
7205;SDS011;3644;53.480;10.004;2022-08-21T12:56:22;2.77;;;1.30;;
7205;SDS011;3644;53.480;10.004;2022-08-21T12:58:50;2.73;;;1.43;;
7205;SDS011;3644;53.480;10.004;2022-08-21T13:01:33;3.40;;;1.43;;
7205;SDS011;3644;53.480;10.004;2022-08-21T13:04:17;3.63;;;1.40;;
7205;SDS011;3644;53.480;10.004;2022-08-21T13:06:47;3.70;;;1.77;;
7205;SDS011;3644;53.480;10.004;2022-08-21T13:09:18;3.77;;;1.57;;
7205;SDS011;3644;53.480;10.004;2022-08-21T13:11:48;3.20;;;1.77;;
7205;SDS011;3644;53.480;10.004;2022-08-21T13:14:23;8.07;;;2.53;;
7205;SDS011;3644;53.480;10.004;2022-08-21T13:17:05;6.63;;;1.87;;
7205;SDS011;3644;53.480;10.004;2022-08-21T13:19:32;3.50;;;1.73;;
7205;SDS011;3644;53.480;10.004;2022-08-21T13:21:59;2.67;;;1.57;;
7205;SDS011;3644;53.480;10.004;2022-08-21T13:24:29;5.40;;;1.80;;
7205;SDS011;3644;53.480;10.004;2022-08-21T13:26:59;4.90;;;1.87;;
7205;SDS011;3644;53.480;10.004;2022-08-21T13:29:30;2.63;;;1.60;;
7205;SDS011;3644;53.480;10.004;2022-08-21T13:32:00;5.60;;;1.57;;
7205;SDS011;3644;53.480;10.004;2022-08-21T13:34:35;9.13;;;1.90;;
7205;SDS011;3644;53.480;10.004;2022-08-21T13:37:03;10.50;;;1.67;;
7205;SDS011;3644;53.480;10.004;2022-08-21T13:39:31;3.57;;;1.57;;
7205;SDS011;3644;53.480;10.004;2022-08-21T13:41:58;3.17;;;1.37;;
7205;SDS011;3644;53.480;10.004;2022-08-21T13:44:34;6.50;;;1.67;;
7205;SDS011;3644;53.480;10.004;2022-08-21T13:47:05;2.90;;;1.97;;
7205;SDS011;3644;53.480;10.004;2022-08-21T13:49:39;8.27;;;2.23;;
7205;SDS011;3644;53.480;10.004;2022-08-21T13:52:13;6.60;;;1.47;;
7205;SDS011;3644;53.480;10.004;2022-08-21T13:54:51;2.57;;;1.23;;
7205;SDS011;3644;53.480;10.004;2022-08-21T13:57:27;4.60;;;1.60;;
7205;SDS011;3644;53.480;10.004;2022-08-21T14:02:54;4.63;;;1.23;;
7205;SDS011;3644;53.480;10.004;2022-08-21T14:05:27;3.50;;;1.57;;
7205;SDS011;3644;53.480;10.004;2022-08-21T14:08:07;2.20;;;1.10;;
7205;SDS011;3644;53.480;10.004;2022-08-21T14:10:41;3.13;;;1.40;;
7205;SDS011;3644;53.480;10.004;2022-08-21T14:13:18;2.97;;;1.50;;
7205;SDS011;3644;53.480;10.004;2022-08-21T14:15:59;3.17;;;1.40;;
7205;SDS011;3644;53.480;10.004;2022-08-21T14:18:26;5.60;;;1.47;;
7205;SDS011;3644;53.480;10.004;2022-08-21T14:21:08;1.20;;;1.03;;
7205;SDS011;3644;53.480;10.004;2022-08-21T14:23:34;4.13;;;1.50;;
7205;SDS011;3644;53.480;10.004;2022-08-21T14:26:02;6.80;;;1.67;;
7205;SDS011;3644;53.480;10.004;2022-08-21T14:28:39;1.97;;;1.40;;
7205;SDS011;3644;53.480;10.004;2022-08-21T14:31:13;3.40;;;1.33;;
7205;SDS011;3644;53.480;10.004;2022-08-21T14:33:40;7.13;;;2.20;;
7205;SDS011;3644;53.480;10.004;2022-08-21T14:36:06;1.13;;;1.00;;
7205;SDS011;3644;53.480;10.004;2022-08-21T14:38:32;3.80;;;1.50;;
7205;SDS011;3644;53.480;10.004;2022-08-21T14:41:04;3.00;;;1.43;;
7205;SDS011;3644;53.480;10.004;2022-08-21T14:43:40;2.30;;;1.30;;
7205;SDS011;3644;53.480;10.004;2022-08-21T14:46:06;4.37;;;1.77;;
7205;SDS011;3644;53.480;10.004;2022-08-21T14:48:32;7.53;;;1.40;;
7205;SDS011;3644;53.480;10.004;2022-08-21T14:50:57;6.57;;;1.70;;
7205;SDS011;3644;53.480;10.004;2022-08-21T14:53:23;4.43;;;1.40;;
7205;SDS011;3644;53.480;10.004;2022-08-21T14:55:49;2.17;;;1.27;;
7205;SDS011;3644;53.480;10.004;2022-08-21T14:58:30;2.00;;;1.20;;
7205;SDS011;3644;53.480;10.004;2022-08-21T15:00:56;4.93;;;1.77;;
7205;SDS011;3644;53.480;10.004;2022-08-21T15:03:23;3.53;;;1.37;;
7205;SDS011;3644;53.480;10.004;2022-08-21T15:05:49;4.83;;;1.50;;
7205;SDS011;3644;53.480;10.004;2022-08-21T15:08:15;5.80;;;2.10;;
7205;SDS011;3644;53.480;10.004;2022-08-21T15:10:41;2.67;;;1.87;;
7205;SDS011;3644;53.480;10.004;2022-08-21T15:13:07;4.07;;;2.23;;
7205;SDS011;3644;53.480;10.004;2022-08-21T15:15:36;6.63;;;2.50;;
7205;SDS011;3644;53.480;10.004;2022-08-21T15:18:04;6.20;;;1.47;;
7205;SDS011;3644;53.480;10.004;2022-08-21T15:20:30;5.47;;;1.70;;
7205;SDS011;3644;53.480;10.004;2022-08-21T15:22:56;4.23;;;1.50;;
7205;SDS011;3644;53.480;10.004;2022-08-21T15:25:22;3.13;;;1.17;;
7205;SDS011;3644;53.480;10.004;2022-08-21T15:27:47;5.40;;;1.97;;
7205;SDS011;3644;53.480;10.004;2022-08-21T15:30:13;9.43;;;1.70;;
7205;SDS011;3644;53.480;10.004;2022-08-21T15:32:38;5.07;;;1.70;;
7205;SDS011;3644;53.480;10.004;2022-08-21T15:35:05;6.40;;;1.40;;
7205;SDS011;3644;53.480;10.004;2022-08-21T15:37:31;3.30;;;1.67;;
7205;SDS011;3644;53.480;10.004;2022-08-21T15:39:57;4.60;;;1.90;;
7205;SDS011;3644;53.480;10.004;2022-08-21T15:42:22;7.20;;;1.40;;
7205;SDS011;3644;53.480;10.004;2022-08-21T15:44:49;5.10;;;1.50;;
7205;SDS011;3644;53.480;10.004;2022-08-21T15:47:18;3.77;;;1.30;;
7205;SDS011;3644;53.480;10.004;2022-08-21T15:49:45;4.50;;;1.30;;
7205;SDS011;3644;53.480;10.004;2022-08-21T15:52:15;1.60;;;1.13;;
7205;SDS011;3644;53.480;10.004;2022-08-21T15:54:45;3.10;;;1.53;;
7205;SDS011;3644;53.480;10.004;2022-08-21T15:57:11;8.30;;;1.57;;
7205;SDS011;3644;53.480;10.004;2022-08-21T15:59:40;6.23;;;1.30;;
7205;SDS011;3644;53.480;10.004;2022-08-21T16:02:08;2.87;;;1.70;;
7205;SDS011;3644;53.480;10.004;2022-08-21T16:04:41;6.63;;;2.17;;
7205;SDS011;3644;53.480;10.004;2022-08-21T16:07:06;5.23;;;1.80;;
7205;SDS011;3644;53.480;10.004;2022-08-21T16:09:32;5.70;;;1.53;;
7205;SDS011;3644;53.480;10.004;2022-08-21T16:12:00;6.17;;;1.90;;
7205;SDS011;3644;53.480;10.004;2022-08-21T16:14:28;3.97;;;1.20;;
7205;SDS011;3644;53.480;10.004;2022-08-21T16:16:55;4.90;;;1.90;;
7205;SDS011;3644;53.480;10.004;2022-08-21T16:19:21;5.17;;;1.50;;
7205;SDS011;3644;53.480;10.004;2022-08-21T16:21:47;4.60;;;1.50;;